sensor_id;sensor_type;location;lat;lon;timestamp;P1;durP1;ratioP1;P2;durP2;ratioP2
74849;SDS011;63397;47.480;19.238;2023-02-21T00:02:55;18.70;;;7.97;;
74849;SDS011;63397;47.480;19.238;2023-02-21T00:06:15;16.63;;;7.38;;
74849;SDS011;63397;47.480;19.238;2023-02-21T00:09:37;20.00;;;8.20;;
74849;SDS011;63397;47.480;19.238;2023-02-21T00:12:58;16.50;;;8.13;;
74849;SDS011;63397;47.480;19.238;2023-02-21T00:16:19;17.05;;;7.57;;
74849;SDS011;63397;47.480;19.238;2023-02-21T00:19:39;16.25;;;6.57;;
74849;SDS011;63397;47.480;19.238;2023-02-21T00:23:00;15.68;;;6.47;;
74849;SDS011;63397;47.480;19.238;2023-02-21T00:26:21;14.83;;;6.07;;
74849;SDS011;63397;47.480;19.238;2023-02-21T00:29:42;13.98;;;6.50;;
74849;SDS011;63397;47.480;19.238;2023-02-21T00:33:03;11.70;;;5.00;;
74849;SDS011;63397;47.480;19.238;2023-02-21T00:36:24;12.30;;;5.60;;
74849;SDS011;63397;47.480;19.238;2023-02-21T00:39:45;14.45;;;5.00;;
74849;SDS011;63397;47.480;19.238;2023-02-21T00:43:05;10.43;;;4.50;;
74849;SDS011;63397;47.480;19.238;2023-02-21T00:46:26;14.05;;;5.25;;
74849;SDS011;63397;47.480;19.238;2023-02-21T00:49:47;15.50;;;7.07;;
74849;SDS011;63397;47.480;19.238;2023-02-21T00:53:08;16.50;;;7.35;;
74849;SDS011;63397;47.480;19.238;2023-02-21T00:56:29;17.92;;;8.23;;
74849;SDS011;63397;47.480;19.238;2023-02-21T00:59:49;16.47;;;7.83;;
74849;SDS011;63397;47.480;19.238;2023-02-21T01:03:10;19.42;;;8.15;;
74849;SDS011;63397;47.480;19.238;2023-02-21T01:06:31;17.92;;;8.55;;
74849;SDS011;63397;47.480;19.238;2023-02-21T01:09:52;16.35;;;7.78;;
74849;SDS011;63397;47.480;19.238;2023-02-21T01:13:13;20.52;;;7.90;;
74849;SDS011;63397;47.480;19.238;2023-02-21T01:16:34;20.13;;;8.20;;
74849;SDS011;63397;47.480;19.238;2023-02-21T01:19:59;16.83;;;7.68;;
74849;SDS011;63397;47.480;19.238;2023-02-21T01:23:20;19.30;;;8.38;;
74849;SDS011;63397;47.480;19.238;2023-02-21T01:26:40;20.38;;;8.55;;
74849;SDS011;63397;47.480;19.238;2023-02-21T01:30:02;18.08;;;8.02;;
74849;SDS011;63397;47.480;19.238;2023-02-21T01:33:22;18.23;;;7.77;;
74849;SDS011;63397;47.480;19.238;2023-02-21T01:36:43;16.58;;;7.57;;
74849;SDS011;63397;47.480;19.238;2023-02-21T01:40:04;18.88;;;8.30;;
74849;SDS011;63397;47.480;19.238;2023-02-21T01:43:26;15.38;;;7.25;;
74849;SDS011;63397;47.480;19.238;2023-02-21T01:46:46;15.10;;;7.30;;
74849;SDS011;63397;47.480;19.238;2023-02-21T01:50:29;14.30;;;6.53;;
74849;SDS011;63397;47.480;19.238;2023-02-21T01:53:48;17.02;;;7.00;;
74849;SDS011;63397;47.480;19.238;2023-02-21T01:57:09;12.80;;;5.43;;
74849;SDS011;63397;47.480;19.238;2023-02-21T02:00:29;13.02;;;5.50;;
74849;SDS011;63397;47.480;19.238;2023-02-21T02:03:50;11.00;;;4.95;;
74849;SDS011;63397;47.480;19.238;2023-02-21T02:07:11;11.83;;;6.03;;
74849;SDS011;63397;47.480;19.238;2023-02-21T02:10:32;12.27;;;5.35;;
74849;SDS011;63397;47.480;19.238;2023-02-21T02:17:04;12.25;;;5.25;;
74849;SDS011;63397;47.480;19.238;2023-02-21T02:33:54;13.90;;;5.35;;
74849;SDS011;63397;47.480;19.238;2023-02-21T02:43:40;10.07;;;3.92;;
74849;SDS011;63397;47.480;19.238;2023-02-21T02:46:45;7.47;;;3.17;;
74849;SDS011;63397;47.480;19.238;2023-02-21T02:49:49;7.65;;;2.72;;
74849;SDS011;63397;47.480;19.238;2023-02-21T02:52:53;5.97;;;2.38;;
74849;SDS011;63397;47.480;19.238;2023-02-21T02:55:59;5.90;;;1.60;;
74849;SDS011;63397;47.480;19.238;2023-02-21T02:59:06;4.13;;;1.25;;
74849;SDS011;63397;47.480;19.238;2023-02-21T03:08:24;4.95;;;1.80;;
74849;SDS011;63397;47.480;19.238;2023-02-21T03:11:29;4.13;;;1.60;;
74849;SDS011;63397;47.480;19.238;2023-02-21T03:14:34;5.15;;;1.63;;
74849;SDS011;63397;47.480;19.238;2023-02-21T03:17:39;4.60;;;1.60;;
74849;SDS011;63397;47.480;19.238;2023-02-21T03:20:43;3.03;;;1.13;;
74849;SDS011;63397;47.480;19.238;2023-02-21T03:23:49;5.18;;;1.20;;
74849;SDS011;63397;47.480;19.238;2023-02-21T03:26:53;4.77;;;1.10;;
74849;SDS011;63397;47.480;19.238;2023-02-21T03:30:17;4.82;;;0.90;;
74849;SDS011;63397;47.480;19.238;2023-02-21T03:33:23;3.40;;;0.95;;
74849;SDS011;63397;47.480;19.238;2023-02-21T03:36:25;4.55;;;0.80;;
74849;SDS011;63397;47.480;19.238;2023-02-21T03:39:28;4.13;;;0.70;;
74849;SDS011;63397;47.480;19.238;2023-02-21T03:42:30;2.87;;;0.80;;
74849;SDS011;63397;47.480;19.238;2023-02-21T03:45:33;4.00;;;0.90;;
74849;SDS011;63397;47.480;19.238;2023-02-21T03:48:50;2.80;;;0.95;;
74849;SDS011;63397;47.480;19.238;2023-02-21T03:52:01;3.13;;;0.90;;
74849;SDS011;63397;47.480;19.238;2023-02-21T03:55:03;3.72;;;1.10;;
74849;SDS011;63397;47.480;19.238;2023-02-21T03:58:06;3.40;;;1.07;;
74849;SDS011;63397;47.480;19.238;2023-02-21T04:01:11;5.15;;;1.20;;
74849;SDS011;63397;47.480;19.238;2023-02-21T04:04:13;3.75;;;0.82;;
74849;SDS011;63397;47.480;19.238;2023-02-21T04:07:17;3.20;;;1.00;;
74849;SDS011;63397;47.480;19.238;2023-02-21T04:10:20;4.65;;;1.00;;
74849;SDS011;63397;47.480;19.238;2023-02-21T04:13:23;3.23;;;0.90;;
74849;SDS011;63397;47.480;19.238;2023-02-21T04:16:28;5.22;;;1.33;;
74849;SDS011;63397;47.480;19.238;2023-02-21T04:19:31;3.35;;;1.20;;
74849;SDS011;63397;47.480;19.238;2023-02-21T04:22:33;2.97;;;1.10;;
74849;SDS011;63397;47.480;19.238;2023-02-21T04:25:35;3.95;;;1.27;;
74849;SDS011;63397;47.480;19.238;2023-02-21T04:28:43;6.13;;;1.03;;
74849;SDS011;63397;47.480;19.238;2023-02-21T04:31:45;3.33;;;1.08;;
74849;SDS011;63397;47.480;19.238;2023-02-21T04:34:50;3.10;;;0.85;;
74849;SDS011;63397;47.480;19.238;2023-02-21T04:37:52;8.70;;;1.10;;
74849;SDS011;63397;47.480;19.238;2023-02-21T04:40:55;5.82;;;1.00;;
74849;SDS011;63397;47.480;19.238;2023-02-21T04:43:57;5.00;;;0.93;;
74849;SDS011;63397;47.480;19.238;2023-02-21T04:47:00;2.72;;;0.90;;
74849;SDS011;63397;47.480;19.238;2023-02-21T04:50:02;4.25;;;1.17;;
74849;SDS011;63397;47.480;19.238;2023-02-21T04:53:04;7.10;;;1.10;;
74849;SDS011;63397;47.480;19.238;2023-02-21T04:56:06;4.20;;;0.80;;
74849;SDS011;63397;47.480;19.238;2023-02-21T04:59:09;3.80;;;1.27;;
74849;SDS011;63397;47.480;19.238;2023-02-21T05:02:11;3.20;;;0.80;;
74849;SDS011;63397;47.480;19.238;2023-02-21T05:05:13;1.40;;;0.43;;
74849;SDS011;63397;47.480;19.238;2023-02-21T05:08:15;1.20;;;0.22;;
74849;SDS011;63397;47.480;19.238;2023-02-21T05:11:18;0.57;;;0.20;;
74849;SDS011;63397;47.480;19.238;2023-02-21T05:14:21;1.33;;;0.20;;
74849;SDS011;63397;47.480;19.238;2023-02-21T05:17:23;0.57;;;0.20;;
74849;SDS011;63397;47.480;19.238;2023-02-21T05:20:26;0.95;;;0.20;;
74849;SDS011;63397;47.480;19.238;2023-02-21T05:23:28;1.50;;;0.43;;
74849;SDS011;63397;47.480;19.238;2023-02-21T05:26:37;2.05;;;0.50;;
74849;SDS011;63397;47.480;19.238;2023-02-21T05:29:40;1.33;;;0.20;;
74849;SDS011;63397;47.480;19.238;2023-02-21T05:32:42;0.73;;;0.10;;
74849;SDS011;63397;47.480;19.238;2023-02-21T05:35:44;3.47;;;0.50;;
74849;SDS011;63397;47.480;19.238;2023-02-21T05:38:50;1.83;;;0.47;;
74849;SDS011;63397;47.480;19.238;2023-02-21T05:41:52;1.00;;;0.38;;
74849;SDS011;63397;47.480;19.238;2023-02-21T05:44:54;0.60;;;0.20;;
74849;SDS011;63397;47.480;19.238;2023-02-21T05:47:56;0.70;;;0.30;;
74849;SDS011;63397;47.480;19.238;2023-02-21T05:51:01;0.88;;;0.30;;
74849;SDS011;63397;47.480;19.238;2023-02-21T05:54:04;0.45;;;0.20;;
74849;SDS011;63397;47.480;19.238;2023-02-21T05:57:07;2.75;;;0.40;;
74849;SDS011;63397;47.480;19.238;2023-02-21T06:00:14;1.07;;;0.30;;
74849;SDS011;63397;47.480;19.238;2023-02-21T06:03:17;1.08;;;0.28;;
74849;SDS011;63397;47.480;19.238;2023-02-21T06:06:19;1.67;;;0.43;;
74849;SDS011;63397;47.480;19.238;2023-02-21T06:09:21;1.20;;;0.35;;
74849;SDS011;63397;47.480;19.238;2023-02-21T06:12:23;1.27;;;0.30;;
74849;SDS011;63397;47.480;19.238;2023-02-21T06:15:26;2.07;;;0.40;;
74849;SDS011;63397;47.480;19.238;2023-02-21T06:18:28;1.50;;;0.55;;
74849;SDS011;63397;47.480;19.238;2023-02-21T06:21:30;1.08;;;0.35;;
74849;SDS011;63397;47.480;19.238;2023-02-21T06:24:32;1.65;;;0.22;;
74849;SDS011;63397;47.480;19.238;2023-02-21T06:27:34;0.95;;;0.40;;
74849;SDS011;63397;47.480;19.238;2023-02-21T06:30:37;0.83;;;0.30;;
74849;SDS011;63397;47.480;19.238;2023-02-21T06:33:39;1.10;;;0.35;;
74849;SDS011;63397;47.480;19.238;2023-02-21T06:36:42;1.70;;;0.35;;
74849;SDS011;63397;47.480;19.238;2023-02-21T06:39:44;1.10;;;0.30;;
74849;SDS011;63397;47.480;19.238;2023-02-21T06:42:46;1.15;;;0.43;;
74849;SDS011;63397;47.480;19.238;2023-02-21T06:45:49;0.67;;;0.30;;
74849;SDS011;63397;47.480;19.238;2023-02-21T06:48:51;1.42;;;0.30;;
74849;SDS011;63397;47.480;19.238;2023-02-21T06:51:53;1.35;;;0.60;;
74849;SDS011;63397;47.480;19.238;2023-02-21T06:54:56;1.02;;;0.30;;
74849;SDS011;63397;47.480;19.238;2023-02-21T06:58:00;1.73;;;0.47;;
74849;SDS011;63397;47.480;19.238;2023-02-21T07:01:03;1.23;;;0.50;;
74849;SDS011;63397;47.480;19.238;2023-02-21T07:04:06;0.50;;;0.30;;
74849;SDS011;63397;47.480;19.238;2023-02-21T07:07:09;3.03;;;0.40;;
74849;SDS011;63397;47.480;19.238;2023-02-21T07:10:11;1.10;;;0.20;;
74849;SDS011;63397;47.480;19.238;2023-02-21T07:13:14;7.45;;;0.68;;
74849;SDS011;63397;47.480;19.238;2023-02-21T07:16:17;2.53;;;0.90;;
74849;SDS011;63397;47.480;19.238;2023-02-21T07:19:19;1.58;;;0.55;;
74849;SDS011;63397;47.480;19.238;2023-02-21T07:22:22;3.67;;;0.50;;
74849;SDS011;63397;47.480;19.238;2023-02-21T07:25:27;1.58;;;0.55;;
74849;SDS011;63397;47.480;19.238;2023-02-21T07:28:29;1.25;;;0.45;;
74849;SDS011;63397;47.480;19.238;2023-02-21T07:31:31;1.33;;;0.60;;
74849;SDS011;63397;47.480;19.238;2023-02-21T07:34:34;1.63;;;0.50;;
74849;SDS011;63397;47.480;19.238;2023-02-21T07:37:36;1.40;;;0.57;;
74849;SDS011;63397;47.480;19.238;2023-02-21T07:40:39;0.88;;;0.40;;
74849;SDS011;63397;47.480;19.238;2023-02-21T07:43:41;0.98;;;0.35;;
74849;SDS011;63397;47.480;19.238;2023-02-21T07:46:47;1.67;;;0.70;;
74849;SDS011;63397;47.480;19.238;2023-02-21T07:49:50;1.17;;;0.47;;
74849;SDS011;63397;47.480;19.238;2023-02-21T07:52:56;1.67;;;0.32;;
74849;SDS011;63397;47.480;19.238;2023-02-21T07:56:02;1.40;;;0.40;;
74849;SDS011;63397;47.480;19.238;2023-02-21T07:59:07;1.35;;;0.80;;
74849;SDS011;63397;47.480;19.238;2023-02-21T08:02:13;1.67;;;0.37;;
74849;SDS011;63397;47.480;19.238;2023-02-21T08:05:16;1.95;;;0.75;;
74849;SDS011;63397;47.480;19.238;2023-02-21T08:08:18;1.25;;;0.40;;
74849;SDS011;63397;47.480;19.238;2023-02-21T08:11:20;1.60;;;0.40;;
74849;SDS011;63397;47.480;19.238;2023-02-21T08:14:24;0.70;;;0.38;;
74849;SDS011;63397;47.480;19.238;2023-02-21T08:17:26;2.17;;;0.80;;
74849;SDS011;63397;47.480;19.238;2023-02-21T08:20:29;1.10;;;0.40;;
74849;SDS011;63397;47.480;19.238;2023-02-21T08:23:32;1.85;;;0.68;;
74849;SDS011;63397;47.480;19.238;2023-02-21T08:26:34;1.50;;;0.60;;
74849;SDS011;63397;47.480;19.238;2023-02-21T08:29:36;1.15;;;0.30;;
74849;SDS011;63397;47.480;19.238;2023-02-21T08:32:39;0.97;;;0.40;;
74849;SDS011;63397;47.480;19.238;2023-02-21T08:35:41;2.92;;;0.70;;
74849;SDS011;63397;47.480;19.238;2023-02-21T08:38:43;1.90;;;0.70;;
74849;SDS011;63397;47.480;19.238;2023-02-21T08:41:46;2.05;;;0.50;;
74849;SDS011;63397;47.480;19.238;2023-02-21T08:44:49;2.33;;;0.85;;
74849;SDS011;63397;47.480;19.238;2023-02-21T08:47:52;2.60;;;0.67;;
74849;SDS011;63397;47.480;19.238;2023-02-21T08:50:54;1.85;;;0.63;;
74849;SDS011;63397;47.480;19.238;2023-02-21T08:53:57;2.83;;;0.80;;
74849;SDS011;63397;47.480;19.238;2023-02-21T08:56:59;1.50;;;0.50;;
74849;SDS011;63397;47.480;19.238;2023-02-21T09:00:02;2.83;;;0.70;;
74849;SDS011;63397;47.480;19.238;2023-02-21T09:03:06;2.23;;;0.60;;
74849;SDS011;63397;47.480;19.238;2023-02-21T09:06:09;2.08;;;0.65;;
74849;SDS011;63397;47.480;19.238;2023-02-21T09:09:11;2.03;;;0.75;;
74849;SDS011;63397;47.480;19.238;2023-02-21T09:12:21;2.50;;;0.70;;
74849;SDS011;63397;47.480;19.238;2023-02-21T09:15:28;3.47;;;0.77;;
74849;SDS011;63397;47.480;19.238;2023-02-21T09:18:38;2.27;;;0.87;;
74849;SDS011;63397;47.480;19.238;2023-02-21T09:21:45;0.93;;;0.30;;
74849;SDS011;63397;47.480;19.238;2023-02-21T09:24:52;3.15;;;0.60;;
74849;SDS011;63397;47.480;19.238;2023-02-21T09:27:57;2.47;;;0.50;;
74849;SDS011;63397;47.480;19.238;2023-02-21T09:31:03;1.13;;;0.40;;
74849;SDS011;63397;47.480;19.238;2023-02-21T09:34:06;2.27;;;0.53;;
74849;SDS011;63397;47.480;19.238;2023-02-21T09:37:08;1.42;;;0.45;;
74849;SDS011;63397;47.480;19.238;2023-02-21T09:40:20;0.85;;;0.38;;
74849;SDS011;63397;47.480;19.238;2023-02-21T09:46:39;3.13;;;0.47;;
74849;SDS011;63397;47.480;19.238;2023-02-21T09:49:42;1.03;;;0.30;;
74849;SDS011;63397;47.480;19.238;2023-02-21T09:52:48;0.88;;;0.43;;
74849;SDS011;63397;47.480;19.238;2023-02-21T09:55:52;1.40;;;0.57;;
74849;SDS011;63397;47.480;19.238;2023-02-21T09:58:59;3.15;;;0.75;;
74849;SDS011;63397;47.480;19.238;2023-02-21T10:08:30;2.95;;;0.70;;
74849;SDS011;63397;47.480;19.238;2023-02-21T10:18:03;2.13;;;0.73;;
74849;SDS011;63397;47.480;19.238;2023-02-21T10:24:26;0.55;;;0.30;;
74849;SDS011;63397;47.480;19.238;2023-02-21T10:27:30;1.90;;;0.82;;
74849;SDS011;63397;47.480;19.238;2023-02-21T10:30:34;1.38;;;0.50;;
74849;SDS011;63397;47.480;19.238;2023-02-21T10:33:37;2.38;;;0.45;;
74849;SDS011;63397;47.480;19.238;2023-02-21T10:36:41;4.07;;;0.60;;
74849;SDS011;63397;47.480;19.238;2023-02-21T10:39:45;1.02;;;0.35;;
74849;SDS011;63397;47.480;19.238;2023-02-21T10:42:55;1.67;;;0.43;;
74849;SDS011;63397;47.480;19.238;2023-02-21T10:49:24;1.48;;;0.57;;
74849;SDS011;63397;47.480;19.238;2023-02-21T10:52:35;2.30;;;0.80;;
74849;SDS011;63397;47.480;19.238;2023-02-21T10:55:42;0.82;;;0.40;;
74849;SDS011;63397;47.480;19.238;2023-02-21T10:58:47;1.88;;;0.40;;
74849;SDS011;63397;47.480;19.238;2023-02-21T11:01:51;1.67;;;0.40;;
74849;SDS011;63397;47.480;19.238;2023-02-21T11:04:54;1.35;;;0.50;;
74849;SDS011;63397;47.480;19.238;2023-02-21T11:11:03;1.20;;;0.55;;
74849;SDS011;63397;47.480;19.238;2023-02-21T11:14:26;3.65;;;0.90;;
74849;SDS011;63397;47.480;19.238;2023-02-21T11:17:28;2.28;;;0.70;;
74849;SDS011;63397;47.480;19.238;2023-02-21T11:20:33;1.45;;;0.50;;
74849;SDS011;63397;47.480;19.238;2023-02-21T11:23:35;1.63;;;0.60;;
74849;SDS011;63397;47.480;19.238;2023-02-21T11:26:49;1.20;;;0.43;;
74849;SDS011;63397;47.480;19.238;2023-02-21T11:29:53;4.50;;;0.70;;
74849;SDS011;63397;47.480;19.238;2023-02-21T11:33:00;1.92;;;0.60;;
74849;SDS011;63397;47.480;19.238;2023-02-21T11:36:13;1.52;;;0.50;;
74849;SDS011;63397;47.480;19.238;2023-02-21T11:39:17;2.50;;;0.80;;
74849;SDS011;63397;47.480;19.238;2023-02-21T11:42:30;2.47;;;0.80;;
74849;SDS011;63397;47.480;19.238;2023-02-21T11:45:32;1.50;;;0.60;;
74849;SDS011;63397;47.480;19.238;2023-02-21T11:52:02;1.95;;;0.63;;
74849;SDS011;63397;47.480;19.238;2023-02-21T11:55:14;2.87;;;0.70;;
74849;SDS011;63397;47.480;19.238;2023-02-21T11:58:22;2.80;;;0.60;;
74849;SDS011;63397;47.480;19.238;2023-02-21T12:01:31;1.02;;;0.55;;
74849;SDS011;63397;47.480;19.238;2023-02-21T12:14:22;2.22;;;0.70;;
74849;SDS011;63397;47.480;19.238;2023-02-21T12:20:41;1.30;;;0.68;;
74849;SDS011;63397;47.480;19.238;2023-02-21T12:33:12;1.55;;;0.70;;
74849;SDS011;63397;47.480;19.238;2023-02-21T12:46:20;1.42;;;0.70;;
74849;SDS011;63397;47.480;19.238;2023-02-21T12:52:45;2.78;;;0.88;;
74849;SDS011;63397;47.480;19.238;2023-02-21T12:55:54;5.40;;;0.85;;
74849;SDS011;63397;47.480;19.238;2023-02-21T13:06:01;2.35;;;1.10;;
74849;SDS011;63397;47.480;19.238;2023-02-21T13:08:51;1.75;;;0.70;;
74849;SDS011;63397;47.480;19.238;2023-02-21T13:15:03;1.23;;;0.57;;
74849;SDS011;63397;47.480;19.238;2023-02-21T13:18:27;1.60;;;0.55;;
74849;SDS011;63397;47.480;19.238;2023-02-21T13:24:51;2.22;;;0.70;;
74849;SDS011;63397;47.480;19.238;2023-02-21T13:31:18;1.77;;;0.60;;
74849;SDS011;63397;47.480;19.238;2023-02-21T13:34:21;1.70;;;0.60;;
74849;SDS011;63397;47.480;19.238;2023-02-21T13:37:29;1.70;;;0.68;;
74849;SDS011;63397;47.480;19.238;2023-02-21T13:43:35;1.73;;;0.55;;
74849;SDS011;63397;47.480;19.238;2023-02-21T13:49:46;1.45;;;0.60;;
74849;SDS011;63397;47.480;19.238;2023-02-21T13:52:50;2.00;;;0.80;;
74849;SDS011;63397;47.480;19.238;2023-02-21T13:59:29;1.48;;;0.40;;
74849;SDS011;63397;47.480;19.238;2023-02-21T14:02:33;1.63;;;0.70;;
74849;SDS011;63397;47.480;19.238;2023-02-21T14:08:47;1.10;;;0.40;;
74849;SDS011;63397;47.480;19.238;2023-02-21T14:11:51;1.65;;;0.40;;
74849;SDS011;63397;47.480;19.238;2023-02-21T14:15:02;1.83;;;0.75;;
74849;SDS011;63397;47.480;19.238;2023-02-21T14:21:44;1.65;;;0.50;;
74849;SDS011;63397;47.480;19.238;2023-02-21T14:24:48;2.15;;;0.70;;
74849;SDS011;63397;47.480;19.238;2023-02-21T14:27:51;1.58;;;0.50;;
74849;SDS011;63397;47.480;19.238;2023-02-21T14:31:02;1.42;;;0.55;;
74849;SDS011;63397;47.480;19.238;2023-02-21T14:34:04;1.30;;;0.50;;
74849;SDS011;63397;47.480;19.238;2023-02-21T14:40:30;2.08;;;0.80;;
74849;SDS011;63397;47.480;19.238;2023-02-21T14:47:19;1.95;;;0.60;;
74849;SDS011;63397;47.480;19.238;2023-02-21T15:03:35;2.70;;;0.55;;
74849;SDS011;63397;47.480;19.238;2023-02-21T15:06:39;0.80;;;0.43;;
74849;SDS011;63397;47.480;19.238;2023-02-21T15:09:42;0.77;;;0.32;;
74849;SDS011;63397;47.480;19.238;2023-02-21T15:12:46;1.20;;;0.40;;
74849;SDS011;63397;47.480;19.238;2023-02-21T15:18:59;1.95;;;0.60;;
74849;SDS011;63397;47.480;19.238;2023-02-21T15:25:17;0.85;;;0.30;;
74849;SDS011;63397;47.480;19.238;2023-02-21T15:28:25;1.50;;;0.43;;
74849;SDS011;63397;47.480;19.238;2023-02-21T15:31:29;1.38;;;0.60;;
74849;SDS011;63397;47.480;19.238;2023-02-21T15:34:42;2.13;;;0.43;;
74849;SDS011;63397;47.480;19.238;2023-02-21T15:37:45;1.40;;;0.40;;
74849;SDS011;63397;47.480;19.238;2023-02-21T15:40:48;0.95;;;0.40;;
74849;SDS011;63397;47.480;19.238;2023-02-21T15:43:57;1.40;;;0.50;;
74849;SDS011;63397;47.480;19.238;2023-02-21T15:47:01;1.90;;;0.60;;
74849;SDS011;63397;47.480;19.238;2023-02-21T15:53:14;2.80;;;0.60;;
74849;SDS011;63397;47.480;19.238;2023-02-21T15:56:22;1.60;;;0.50;;
74849;SDS011;63397;47.480;19.238;2023-02-21T15:59:25;1.52;;;0.47;;
74849;SDS011;63397;47.480;19.238;2023-02-21T16:02:27;0.82;;;0.30;;
74849;SDS011;63397;47.480;19.238;2023-02-21T16:05:33;2.45;;;0.60;;
74849;SDS011;63397;47.480;19.238;2023-02-21T16:08:59;1.37;;;0.40;;
74849;SDS011;63397;47.480;19.238;2023-02-21T16:15:04;1.52;;;0.50;;
74849;SDS011;63397;47.480;19.238;2023-02-21T16:18:09;1.20;;;0.40;;
74849;SDS011;63397;47.480;19.238;2023-02-21T16:21:20;1.42;;;0.45;;
74849;SDS011;63397;47.480;19.238;2023-02-21T16:24:30;2.07;;;0.70;;
74849;SDS011;63397;47.480;19.238;2023-02-21T16:27:32;1.30;;;0.28;;
74849;SDS011;63397;47.480;19.238;2023-02-21T16:30:34;1.67;;;0.50;;
74849;SDS011;63397;47.480;19.238;2023-02-21T16:33:40;2.58;;;0.50;;
74849;SDS011;63397;47.480;19.238;2023-02-21T16:36:42;1.27;;;0.43;;
74849;SDS011;63397;47.480;19.238;2023-02-21T16:39:44;1.60;;;0.43;;
74849;SDS011;63397;47.480;19.238;2023-02-21T16:42:47;1.00;;;0.43;;
74849;SDS011;63397;47.480;19.238;2023-02-21T16:45:50;1.90;;;0.55;;
74849;SDS011;63397;47.480;19.238;2023-02-21T16:48:53;1.92;;;0.73;;
74849;SDS011;63397;47.480;19.238;2023-02-21T16:51:56;1.90;;;0.47;;
74849;SDS011;63397;47.480;19.238;2023-02-21T16:54:58;1.30;;;0.40;;
74849;SDS011;63397;47.480;19.238;2023-02-21T16:58:01;2.05;;;0.70;;
74849;SDS011;63397;47.480;19.238;2023-02-21T17:01:07;1.73;;;0.60;;
74849;SDS011;63397;47.480;19.238;2023-02-21T17:04:19;2.75;;;0.65;;
74849;SDS011;63397;47.480;19.238;2023-02-21T17:07:23;3.00;;;0.80;;
74849;SDS011;63397;47.480;19.238;2023-02-21T17:10:26;2.07;;;0.70;;
74849;SDS011;63397;47.480;19.238;2023-02-21T17:13:29;1.80;;;0.70;;
74849;SDS011;63397;47.480;19.238;2023-02-21T17:16:31;2.28;;;0.70;;
74849;SDS011;63397;47.480;19.238;2023-02-21T17:19:33;2.33;;;0.88;;
74849;SDS011;63397;47.480;19.238;2023-02-21T17:22:35;1.58;;;0.57;;
74849;SDS011;63397;47.480;19.238;2023-02-21T17:25:38;1.73;;;0.60;;
74849;SDS011;63397;47.480;19.238;2023-02-21T17:28:40;1.98;;;0.60;;
74849;SDS011;63397;47.480;19.238;2023-02-21T17:31:42;2.45;;;0.73;;
74849;SDS011;63397;47.480;19.238;2023-02-21T17:34:44;2.15;;;0.90;;
74849;SDS011;63397;47.480;19.238;2023-02-21T17:37:47;3.50;;;0.95;;
74849;SDS011;63397;47.480;19.238;2023-02-21T17:40:50;2.20;;;0.73;;
74849;SDS011;63397;47.480;19.238;2023-02-21T17:43:54;2.47;;;0.90;;
74849;SDS011;63397;47.480;19.238;2023-02-21T17:46:57;2.97;;;0.90;;
74849;SDS011;63397;47.480;19.238;2023-02-21T17:49:59;4.15;;;1.20;;
74849;SDS011;63397;47.480;19.238;2023-02-21T17:53:04;3.10;;;1.00;;
74849;SDS011;63397;47.480;19.238;2023-02-21T17:56:06;4.50;;;1.13;;
74849;SDS011;63397;47.480;19.238;2023-02-21T17:59:08;3.05;;;0.93;;
74849;SDS011;63397;47.480;19.238;2023-02-21T18:02:10;1.85;;;0.60;;
74849;SDS011;63397;47.480;19.238;2023-02-21T18:05:14;2.42;;;0.90;;
74849;SDS011;63397;47.480;19.238;2023-02-21T18:08:16;3.92;;;1.10;;
74849;SDS011;63397;47.480;19.238;2023-02-21T18:11:19;3.57;;;1.33;;
74849;SDS011;63397;47.480;19.238;2023-02-21T18:14:22;2.40;;;1.00;;
74849;SDS011;63397;47.480;19.238;2023-02-21T18:17:26;2.75;;;1.00;;
74849;SDS011;63397;47.480;19.238;2023-02-21T18:20:28;3.80;;;1.40;;
74849;SDS011;63397;47.480;19.238;2023-02-21T18:23:31;2.08;;;1.00;;
74849;SDS011;63397;47.480;19.238;2023-02-21T18:26:34;2.07;;;0.80;;
74849;SDS011;63397;47.480;19.238;2023-02-21T18:29:37;2.72;;;0.85;;
74849;SDS011;63397;47.480;19.238;2023-02-21T18:32:39;2.28;;;0.70;;
74849;SDS011;63397;47.480;19.238;2023-02-21T18:35:41;2.00;;;1.10;;
74849;SDS011;63397;47.480;19.238;2023-02-21T18:38:44;3.47;;;1.00;;
74849;SDS011;63397;47.480;19.238;2023-02-21T18:41:46;2.10;;;0.80;;
74849;SDS011;63397;47.480;19.238;2023-02-21T18:44:49;3.15;;;1.15;;
74849;SDS011;63397;47.480;19.238;2023-02-21T18:47:52;1.60;;;0.80;;
74849;SDS011;63397;47.480;19.238;2023-02-21T18:50:54;2.78;;;1.00;;
74849;SDS011;63397;47.480;19.238;2023-02-21T18:53:56;1.45;;;0.52;;
74849;SDS011;63397;47.480;19.238;2023-02-21T18:56:59;1.97;;;0.77;;
74849;SDS011;63397;47.480;19.238;2023-02-21T19:00:03;2.45;;;0.50;;
74849;SDS011;63397;47.480;19.238;2023-02-21T19:03:07;1.85;;;0.50;;
74849;SDS011;63397;47.480;19.238;2023-02-21T19:06:11;4.40;;;1.08;;
74849;SDS011;63397;47.480;19.238;2023-02-21T19:09:14;2.05;;;0.70;;
74849;SDS011;63397;47.480;19.238;2023-02-21T19:12:17;1.40;;;0.50;;
74849;SDS011;63397;47.480;19.238;2023-02-21T19:15:20;2.70;;;0.70;;
74849;SDS011;63397;47.480;19.238;2023-02-21T19:18:22;1.50;;;0.50;;
74849;SDS011;63397;47.480;19.238;2023-02-21T19:21:25;2.47;;;0.77;;
74849;SDS011;63397;47.480;19.238;2023-02-21T19:24:27;1.10;;;0.50;;
74849;SDS011;63397;47.480;19.238;2023-02-21T19:27:30;1.80;;;0.70;;
74849;SDS011;63397;47.480;19.238;2023-02-21T19:30:33;2.05;;;0.82;;
74849;SDS011;63397;47.480;19.238;2023-02-21T19:33:37;2.67;;;0.98;;
74849;SDS011;63397;47.480;19.238;2023-02-21T19:36:41;2.72;;;0.75;;
74849;SDS011;63397;47.480;19.238;2023-02-21T19:39:43;1.83;;;0.70;;
74849;SDS011;63397;47.480;19.238;2023-02-21T19:42:46;2.07;;;0.60;;
74849;SDS011;63397;47.480;19.238;2023-02-21T19:45:50;2.13;;;0.75;;
74849;SDS011;63397;47.480;19.238;2023-02-21T19:48:53;1.90;;;0.52;;
74849;SDS011;63397;47.480;19.238;2023-02-21T19:51:58;1.58;;;0.80;;
74849;SDS011;63397;47.480;19.238;2023-02-21T19:55:01;2.83;;;0.70;;
74849;SDS011;63397;47.480;19.238;2023-02-21T19:58:05;1.37;;;0.53;;
74849;SDS011;63397;47.480;19.238;2023-02-21T20:01:09;2.47;;;1.10;;
74849;SDS011;63397;47.480;19.238;2023-02-21T20:04:12;1.88;;;0.90;;
74849;SDS011;63397;47.480;19.238;2023-02-21T20:07:15;2.25;;;0.65;;
74849;SDS011;63397;47.480;19.238;2023-02-21T20:10:18;1.95;;;0.75;;
74849;SDS011;63397;47.480;19.238;2023-02-21T20:13:26;3.03;;;0.90;;
74849;SDS011;63397;47.480;19.238;2023-02-21T20:16:29;1.60;;;0.63;;
74849;SDS011;63397;47.480;19.238;2023-02-21T20:19:34;2.33;;;0.70;;
74849;SDS011;63397;47.480;19.238;2023-02-21T20:22:37;3.78;;;0.90;;
74849;SDS011;63397;47.480;19.238;2023-02-21T20:25:39;2.85;;;0.80;;
74849;SDS011;63397;47.480;19.238;2023-02-21T20:28:42;2.10;;;0.80;;
74849;SDS011;63397;47.480;19.238;2023-02-21T20:31:44;2.53;;;0.77;;
74849;SDS011;63397;47.480;19.238;2023-02-21T20:34:47;3.58;;;0.93;;
74849;SDS011;63397;47.480;19.238;2023-02-21T20:37:49;2.88;;;0.88;;
74849;SDS011;63397;47.480;19.238;2023-02-21T20:40:52;4.18;;;1.17;;
74849;SDS011;63397;47.480;19.238;2023-02-21T20:43:54;2.33;;;0.90;;
74849;SDS011;63397;47.480;19.238;2023-02-21T20:46:56;2.60;;;1.15;;
74849;SDS011;63397;47.480;19.238;2023-02-21T20:49:59;1.92;;;0.65;;
74849;SDS011;63397;47.480;19.238;2023-02-21T20:53:01;2.28;;;0.85;;
74849;SDS011;63397;47.480;19.238;2023-02-21T20:56:04;3.40;;;1.08;;
74849;SDS011;63397;47.480;19.238;2023-02-21T20:59:07;2.40;;;0.70;;
74849;SDS011;63397;47.480;19.238;2023-02-21T21:02:11;1.63;;;0.57;;
74849;SDS011;63397;47.480;19.238;2023-02-21T21:05:15;3.30;;;1.10;;